Pagina principale
METAR-TAF:

METAR-TAF

Aeroporti :

Alessandria-Borg El Arab, Egitto

latitudine: 31-31N, longitudine: 030-10E, altezza: 54 m

Osservazione

Il bollettino è stato emesso 3 ore e 1 minuti fa, alle 16:00 UTC
Vento 8 kt da nord
Temperature 30°C
Umidità 38%
Pressione 1010 hPa
Visibilità 10 km o più
nessuna nube inferiore a 1500 m e nessun cumulonembo

METAR: HEBA 191600Z 01008KT CAVOK 30/14 Q1010 NOSIG

Ora: 21:01 (19:01 UTC)

Previsione

Il bollettino è stato emesso 2 ore e 1 minuti fa, alle 17:00 UTC
Previsione valida dal 19 alle 18 UTC al 20 alle 24 UTC
Vento 10 kt da nord/nord-est
Visibilità 10 km o più
nessuna nube inferiore a 1500 m e nessun cumulonembo
Probabilità 30% :
Temporaneamente
dal 20 alle 00 UTC al 20 alle 06 UTC
Vento 3 kt da direzioni variabili
Visibilità: 3000 m
foschia

TAF: HEBA 191700Z 1918/2024 02010KT CAVOK PROB30 TEMPO 2000/2006 VRB03KT 3000 BR NSC

Osservazioni e previsioni meteorologiche di più di 4000 aeroporti (messaggi METAR e TAF).

Le stazioni disponibili sono rappresentate dai dischi gialli e rossi sulla carta.

Puntare il mouse per vedere il nome della stazione.

Clicca sopra per visualizzare le osservazioni e previsioni meteorologiche.

Per cambiare la mappa : fare clic sui pulsanti verdi con una croce nera per ingrandire, il pulsante verde con un trattino per diminuire, o sulla freccia verde per le mappe adiacenti.


METAR-TAF: